Riverside Resolute — VHKQ — position and weather

sailwx.info

Track history (hours):
 
Tides and Currents Weather Stations Pressure Air Temp Water Temp Dewpoint Dewpoint Depression Visibility Wind Speed Wind Dir Waves Ship Positions

Riverside Resolute

Last reported at 2017-Sep-19 10:01 UTC. Time now 2017-Sep-19 11:50 UTC.
Position S 27°26' E 153°08'.

Length 78 m; draft 3.5 m.

Type: Ship. MMSI: 503032150.

Date/timePositionNaut miles runAvg speedWind from/ knotsBaromVisibWave heightAir tempDewpointWater temp
2017-Sep-19 10:01S 27°26' E 153°08'0 1.1
2017-Sep-19 09:55S 27°25' E 153°08'1 2.7
2017-Sep-19 09:30S 27°25' E 153°09'3 7.0
2017-Sep-19 09:00S 27°22' E 153°11'4 8.5
2017-Sep-19 08:30S 27°18' E 153°13'1 2.5
2017-Sep-19 07:58S 27°16' E 153°13'0 0.0
2017-Sep-19 07:28S 27°16' E 153°13'0 0.0
2017-Sep-19 07:00S 27°16' E 153°13'2 3.6
2017-Sep-19 06:30S 27°15' E 153°14'9 8.0
2017-Sep-19 05:20S 27°07' E 153°20'4 3.7
2017-Sep-19 04:19S 27°04' E 153°18'0 0.9
2017-Sep-19 03:52S 27°04' E 153°18'0 1.1
2017-Sep-19 03:26S 27°04' E 153°18'0 0.9
2017-Sep-19 03:00S 27°04' E 153°17'0 0.1
2017-Sep-19 02:16S 27°04' E 153°17'0 0.6
2017-Sep-19 01:45S 27°04' E 153°18'8 6.8
2017-Sep-19 00:31S 27°12' E 153°18'0 9.9
2017-Sep-19 00:30S 27°12' E 153°18'5 9.0
2017-Sep-18 23:59S 27°16' E 153°15'5 8.9
2017-Sep-18 23:25S 27°20' E 153°12'4 8.3
2017-Sep-18 22:56S 27°23' E 153°09'3 0.2
2017-Sep-18 09:02S 27°26' E 153°08'0 0.4
2017-Sep-18 08:57S 27°26' E 153°08'1 3.0
2017-Sep-18 08:30S 27°25' E 153°09'3 5.7
2017-Sep-18 08:00S 27°22' E 153°10'510.1
2017-Sep-18 07:30S 27°18' E 153°13'5 9.0
2017-Sep-18 06:56S 27°14' E 153°17'10 7.0
2017-Sep-18 05:29S 27°04' E 153°18'0 0.2
2017-Sep-18 03:59S 27°04' E 153°17'8 3.1
2017-Sep-18 01:20S 27°12' E 153°18'3 9.8
2017-Sep-18 01:00S 27°15' E 153°16'6 9.6
2017-Sep-18 00:20S 27°20' E 153°12'4 9.3
2017-Sep-17 23:55S 27°23' E 153°09'3 0.2
2017-Sep-17 08:09S 27°25' E 153°08'0 1.6
2017-Sep-17 08:00S 27°25' E 153°08'2 4.3
2017-Sep-17 07:30S 27°23' E 153°09'4 7.7
2017-Sep-17 07:00S 27°20' E 153°11'510.2
2017-Sep-17 06:30S 27°16' E 153°15'13 5.8
2017-Sep-17 04:20S 27°04' E 153°18'0 0.1
2017-Sep-17 03:26S 27°04' E 153°18'0 0.1
2017-Sep-17 02:35S 27°04' E 153°18'0 0.0
2017-Sep-17 01:41S 27°04' E 153°18'4 5.0
2017-Sep-17 00:54S 27°07' E 153°20'510.1
2017-Sep-17 00:25S 27°12' E 153°18'4 9.9
2017-Sep-17 00:00S 27°15' E 153°16'7 9.6
2017-Sep-16 23:18S 27°21' E 153°11'3 9.4
2017-Sep-16 22:59S 27°23' E 153°09'3 0.7
2017-Sep-16 18:50S 27°26' E 153°08'0 0.0
2017-Sep-16 07:20S 27°25' E 153°08'1 2.1
2017-Sep-16 06:59S 27°25' E 153°09'2 5.0
2017-Sep-16 06:30S 27°23' E 153°10'5 9.0
2017-Sep-16 06:00S 27°19' E 153°12'15 8.4
2017-Sep-16 04:09S 27°04' E 153°17'0 0.0
2017-Sep-16 02:40S 27°04' E 153°17'0 0.6
2017-Sep-16 02:28S 27°04' E 153°17'0 0.4
2017-Sep-16 01:40S 27°04' E 153°18'0 1.0
2017-Sep-16 01:13S 27°04' E 153°18'1 1.1
2017-Sep-16 00:46S 27°04' E 153°18'1 0.9
2017-Sep-16 00:10S 27°04' E 153°18'0 1.1
2017-Sep-15 23:46S 27°04' E 153°18'0 0.8
2017-Sep-15 23:27S 27°04' E 153°18'8 5.4
2017-Sep-15 21:57S 27°12' E 153°18'4 9.2
2017-Sep-15 21:30S 27°15' E 153°16'5 9.1
2017-Sep-15 20:58S 27°19' E 153°12'4 8.9
2017-Sep-15 20:29S 27°23' E 153°10'3 6.6
2017-Sep-15 20:00S 27°26' E 153°08'2 0.1
2017-Sep-15 05:45S 27°24' E 153°09'1 5.4
2017-Sep-15 05:30S 27°23' E 153°10'2 3.5
2017-Sep-15 04:59S 27°21' E 153°11'4 8.7
2017-Sep-15 04:30S 27°18' E 153°13'15 7.1
2017-Sep-15 02:27S 27°04' E 153°18'8 2.1
2017-Sep-14 22:30S 27°12' E 153°18'5 9.7
2017-Sep-14 22:00S 27°16' E 153°15'5 9.5
2017-Sep-14 21:28S 27°20' E 153°12'4 8.3
2017-Sep-14 21:01S 27°23' E 153°09'0 0.0
2017-Sep-14 04:52S 27°23' E 153°09'3 7.8
2017-Sep-14 04:30S 27°21' E 153°11'5 8.8
2017-Sep-14 03:59S 27°17' E 153°14'13 6.6
2017-Sep-14 02:00S 27°04' E 153°18'0 0.5
2017-Sep-14 01:02S 27°04' E 153°18'0 0.8
2017-Sep-14 00:32S 27°04' E 153°18'0 1.1
2017-Sep-14 00:13S 27°04' E 153°18'0 1.0
2017-Sep-13 23:52S 27°04' E 153°18'0 0.0
2017-Sep-13 23:16S 27°04' E 153°18'0 1.0
2017-Sep-13 22:59S 27°04' E 153°18'0 0.5
2017-Sep-13 22:30S 27°04' E 153°18'5 5.0
2017-Sep-13 21:28S 27°09' E 153°20'4 9.1
2017-Sep-13 21:01S 27°13' E 153°18'5 9.0
2017-Sep-13 20:30S 27°16' E 153°15'4 9.1
2017-Sep-13 20:00S 27°20' E 153°12'4 8.9
2017-Sep-13 19:31S 27°24' E 153°09'0 0.0
2017-Sep-13 03:07S 27°24' E 153°09'1 5.6
2017-Sep-13 03:01S 27°23' E 153°09'4 7.0
2017-Sep-13 02:30S 27°20' E 153°11'4 8.3
2017-Sep-13 02:00S 27°17' E 153°14'13 7.6
2017-Sep-13 00:14S 27°04' E 153°18'0 0.9
2017-Sep-12 23:48S 27°04' E 153°18'0 1.2
2017-Sep-12 23:23S 27°04' E 153°18'0 0.0
2017-Sep-12 22:33S 27°04' E 153°18'1 1.2
2017-Sep-12 22:06S 27°04' E 153°18'0 1.2
2017-Sep-12 21:46S 27°04' E 153°18'0 0.7
2017-Sep-12 21:07S 27°04' E 153°18'3 6.7
2017-Sep-12 20:36S 27°07' E 153°19'1 8.8
2017-Sep-12 20:29S 27°08' E 153°20'4 9.4
2017-Sep-12 20:01S 27°13' E 153°18'5 9.3
2017-Sep-12 19:30S 27°16' E 153°15'5 9.3
2017-Sep-12 19:00S 27°20' E 153°12'4 8.8
2017-Sep-12 18:30S 27°24' E 153°09'0 0.0
2017-Sep-12 02:14S 27°24' E 153°09'1 4.7
2017-Sep-12 02:00S 27°23' E 153°09'3 5.6
2017-Sep-12 01:30S 27°21' E 153°11'5 9.7
2017-Sep-12 01:00S 27°17' E 153°14'13 6.7
2017-Sep-11 23:01S 27°04' E 153°18'0 1.3
2017-Sep-11 23:01S 27°04' E 153°18'0 0.9
2017-Sep-11 22:29S 27°04' E 153°18'0 1.0
2017-Sep-11 22:00S 27°04' E 153°18'0 0.3
2017-Sep-11 21:20S 27°04' E 153°18'0 0.5
2017-Sep-11 20:59S 27°04' E 153°18'0 1.0
2017-Sep-11 20:30S 27°04' E 153°18'3 5.0
2017-Sep-11 19:49S 27°07' E 153°19'3 9.2
2017-Sep-11 19:30S 27°10' E 153°19'5 9.6
2017-Sep-11 19:00S 27°14' E 153°17'5 9.4
2017-Sep-11 18:30S 27°18' E 153°13'5 9.6
2017-Sep-11 17:59S 27°22' E 153°10'3 6.8
2017-Sep-11 17:30S 27°25' E 153°09'1 0.1
2017-Sep-11 01:18S 27°24' E 153°09'2 5.1
2017-Sep-11 00:59S 27°23' E 153°10'4 8.2
2017-Sep-11 00:30S 27°19' E 153°12'4 7.7
2017-Sep-11 00:00S 27°16' E 153°15'11 6.7
2017-Sep-10 22:23S 27°06' E 153°19'3 5.2
2017-Sep-10 21:47S 27°04' E 153°18'1 1.3
2017-Sep-10 21:23S 27°04' E 153°18'1 1.2
2017-Sep-10 20:58S 27°04' E 153°18'0 0.6
2017-Sep-10 20:30S 27°04' E 153°17'0 0.5
2017-Sep-10 20:00S 27°04' E 153°17'0 0.7
2017-Sep-10 19:31S 27°04' E 153°18'0 0.2
2017-Sep-10 19:00S 27°04' E 153°18'3 5.2
2017-Sep-10 18:30S 27°06' E 153°19'5 9.7
2017-Sep-10 18:00S 27°11' E 153°19'510.1
2017-Sep-10 17:30S 27°15' E 153°16'5 9.8
2017-Sep-10 17:00S 27°19' E 153°12'5 9.4
2017-Sep-10 16:30S 27°23' E 153°09'0 0.0
2017-Sep-10 00:24S 27°23' E 153°09'3 8.1
2017-Sep-09 23:59S 27°20' E 153°11'4 8.0
2017-Sep-09 23:29S 27°17' E 153°14'11 6.9
2017-Sep-09 21:54S 27°08' E 153°21'3 7.5
2017-Sep-09 21:27S 27°05' E 153°19'2 2.4
2017-Sep-09 20:49S 27°04' E 153°18'0 0.5
2017-Sep-09 20:29S 27°04' E 153°18'0 1.0
2017-Sep-09 20:01S 27°04' E 153°18'1 1.0
2017-Sep-09 19:31S 27°04' E 153°17'0 0.8
2017-Sep-09 19:00S 27°04' E 153°18'0 0.9
2017-Sep-09 18:30S 27°04' E 153°18'1 1.2
2017-Sep-09 18:00S 27°04' E 153°18'5 9.5
2017-Sep-09 17:30S 27°09' E 153°20'510.3
2017-Sep-09 16:59S 27°14' E 153°17'5 9.7
2017-Sep-09 16:30S 27°17' E 153°14'5 9.0
2017-Sep-09 16:00S 27°21' E 153°11'4 8.6
2017-Sep-09 15:31S 27°25' E 153°09'  
Track history (hours):
 
Tides and Currents Weather Stations Pressure Air Temp Water Temp Dewpoint Dewpoint Depression Visibility Wind Speed Wind Dir Waves Ship Positions

Riverside Resolute

Last reported at 2017-Sep-19 10:01 UTC. Time now 2017-Sep-19 11:50 UTC.
Position S 27°26' E 153°08'.

Length 78 m; draft 3.5 m.

Type: Ship. MMSI: 503032150.

Date/timePositionNaut miles runAvg speedWind from/ knotsBaromVisibWave heightAir tempDewpointWater temp
2017-Sep-19 10:01S 27°26' E 153°08'0 1.1
2017-Sep-19 09:55S 27°25' E 153°08'1 2.7
2017-Sep-19 09:30S 27°25' E 153°09'3 7.0
2017-Sep-19 09:00S 27°22' E 153°11'4 8.5
2017-Sep-19 08:30S 27°18' E 153°13'1 2.5
2017-Sep-19 07:58S 27°16' E 153°13'0 0.0
2017-Sep-19 07:28S 27°16' E 153°13'0 0.0
2017-Sep-19 07:00S 27°16' E 153°13'2 3.6
2017-Sep-19 06:30S 27°15' E 153°14'9 8.0
2017-Sep-19 05:20S 27°07' E 153°20'4 3.7
2017-Sep-19 04:19S 27°04' E 153°18'0 0.9
2017-Sep-19 03:52S 27°04' E 153°18'0 1.1
2017-Sep-19 03:26S 27°04' E 153°18'0 0.9
2017-Sep-19 03:00S 27°04' E 153°17'0 0.1
2017-Sep-19 02:16S 27°04' E 153°17'0 0.6
2017-Sep-19 01:45S 27°04' E 153°18'8 6.8
2017-Sep-19 00:31S 27°12' E 153°18'0 9.9
2017-Sep-19 00:30S 27°12' E 153°18'5 9.0
2017-Sep-18 23:59S 27°16' E 153°15'5 8.9
2017-Sep-18 23:25S 27°20' E 153°12'4 8.3
2017-Sep-18 22:56S 27°23' E 153°09'3 0.2
2017-Sep-18 09:02S 27°26' E 153°08'0 0.4
2017-Sep-18 08:57S 27°26' E 153°08'1 3.0
2017-Sep-18 08:30S 27°25' E 153°09'3 5.7
2017-Sep-18 08:00S 27°22' E 153°10'510.1
2017-Sep-18 07:30S 27°18' E 153°13'5 9.0
2017-Sep-18 06:56S 27°14' E 153°17'10 7.0
2017-Sep-18 05:29S 27°04' E 153°18'0 0.2
2017-Sep-18 03:59S 27°04' E 153°17'8 3.1
2017-Sep-18 01:20S 27°12' E 153°18'3 9.8
2017-Sep-18 01:00S 27°15' E 153°16'6 9.6
2017-Sep-18 00:20S 27°20' E 153°12'4 9.3
2017-Sep-17 23:55S 27°23' E 153°09'3 0.2
2017-Sep-17 08:09S 27°25' E 153°08'0 1.6
2017-Sep-17 08:00S 27°25' E 153°08'2 4.3
2017-Sep-17 07:30S 27°23' E 153°09'4 7.7
2017-Sep-17 07:00S 27°20' E 153°11'510.2
2017-Sep-17 06:30S 27°16' E 153°15'13 5.8
2017-Sep-17 04:20S 27°04' E 153°18'0 0.1
2017-Sep-17 03:26S 27°04' E 153°18'0 0.1
2017-Sep-17 02:35S 27°04' E 153°18'0 0.0
2017-Sep-17 01:41S 27°04' E 153°18'4 5.0
2017-Sep-17 00:54S 27°07' E 153°20'510.1
2017-Sep-17 00:25S 27°12' E 153°18'4 9.9
2017-Sep-17 00:00S 27°15' E 153°16'7 9.6
2017-Sep-16 23:18S 27°21' E 153°11'3 9.4
2017-Sep-16 22:59S 27°23' E 153°09'3 0.7
2017-Sep-16 18:50S 27°26' E 153°08'0 0.0
2017-Sep-16 07:20S 27°25' E 153°08'1 2.1
2017-Sep-16 06:59S 27°25' E 153°09'2 5.0
2017-Sep-16 06:30S 27°23' E 153°10'5 9.0
2017-Sep-16 06:00S 27°19' E 153°12'15 8.4
2017-Sep-16 04:09S 27°04' E 153°17'0 0.0
2017-Sep-16 02:40S 27°04' E 153°17'0 0.6
2017-Sep-16 02:28S 27°04' E 153°17'0 0.4
2017-Sep-16 01:40S 27°04' E 153°18'0 1.0
2017-Sep-16 01:13S 27°04' E 153°18'1 1.1
2017-Sep-16 00:46S 27°04' E 153°18'1 0.9
2017-Sep-16 00:10S 27°04' E 153°18'0 1.1
2017-Sep-15 23:46S 27°04' E 153°18'0 0.8
2017-Sep-15 23:27S 27°04' E 153°18'8 5.4
2017-Sep-15 21:57S 27°12' E 153°18'4 9.2
2017-Sep-15 21:30S 27°15' E 153°16'5 9.1
2017-Sep-15 20:58S 27°19' E 153°12'4 8.9
2017-Sep-15 20:29S 27°23' E 153°10'3 6.6
2017-Sep-15 20:00S 27°26' E 153°08'2 0.1
2017-Sep-15 05:45S 27°24' E 153°09'1 5.4
2017-Sep-15 05:30S 27°23' E 153°10'2 3.5
2017-Sep-15 04:59S 27°21' E 153°11'4 8.7
2017-Sep-15 04:30S 27°18' E 153°13'15 7.1
2017-Sep-15 02:27S 27°04' E 153°18'8 2.1
2017-Sep-14 22:30S 27°12' E 153°18'5 9.7
2017-Sep-14 22:00S 27°16' E 153°15'5 9.5
2017-Sep-14 21:28S 27°20' E 153°12'4 8.3
2017-Sep-14 21:01S 27°23' E 153°09'0 0.0
2017-Sep-14 04:52S 27°23' E 153°09'3 7.8
2017-Sep-14 04:30S 27°21' E 153°11'5 8.8
2017-Sep-14 03:59S 27°17' E 153°14'13 6.6
2017-Sep-14 02:00S 27°04' E 153°18'0 0.5
2017-Sep-14 01:02S 27°04' E 153°18'0 0.8
2017-Sep-14 00:32S 27°04' E 153°18'0 1.1
2017-Sep-14 00:13S 27°04' E 153°18'0 1.0
2017-Sep-13 23:52S 27°04' E 153°18'0 0.0
2017-Sep-13 23:16S 27°04' E 153°18'0 1.0
2017-Sep-13 22:59S 27°04' E 153°18'0 0.5
2017-Sep-13 22:30S 27°04' E 153°18'5 5.0
2017-Sep-13 21:28S 27°09' E 153°20'4 9.1
2017-Sep-13 21:01S 27°13' E 153°18'5 9.0
2017-Sep-13 20:30S 27°16' E 153°15'4 9.1
2017-Sep-13 20:00S 27°20' E 153°12'4 8.9
2017-Sep-13 19:31S 27°24' E 153°09'0 0.0
2017-Sep-13 03:07S 27°24' E 153°09'1 5.6
2017-Sep-13 03:01S 27°23' E 153°09'4 7.0
2017-Sep-13 02:30S 27°20' E 153°11'4 8.3
2017-Sep-13 02:00S 27°17' E 153°14'13 7.6
2017-Sep-13 00:14S 27°04' E 153°18'0 0.9
2017-Sep-12 23:48S 27°04' E 153°18'0 1.2
2017-Sep-12 23:23S 27°04' E 153°18'0 0.0
2017-Sep-12 22:33S 27°04' E 153°18'1 1.2
2017-Sep-12 22:06S 27°04' E 153°18'0 1.2
2017-Sep-12 21:46S 27°04' E 153°18'0 0.7
2017-Sep-12 21:07S 27°04' E 153°18'3 6.7
2017-Sep-12 20:36S 27°07' E 153°19'1 8.8
2017-Sep-12 20:29S 27°08' E 153°20'4 9.4
2017-Sep-12 20:01S 27°13' E 153°18'5 9.3
2017-Sep-12 19:30S 27°16' E 153°15'5 9.3
2017-Sep-12 19:00S 27°20' E 153°12'4 8.8
2017-Sep-12 18:30S 27°24' E 153°09'0 0.0
2017-Sep-12 02:14S 27°24' E 153°09'1 4.7
2017-Sep-12 02:00S 27°23' E 153°09'3 5.6
2017-Sep-12 01:30S 27°21' E 153°11'5 9.7
2017-Sep-12 01:00S 27°17' E 153°14'13 6.7
2017-Sep-11 23:01S 27°04' E 153°18'0 1.3
2017-Sep-11 23:01S 27°04' E 153°18'0 0.9
2017-Sep-11 22:29S 27°04' E 153°18'0 1.0
2017-Sep-11 22:00S 27°04' E 153°18'0 0.3
2017-Sep-11 21:20S 27°04' E 153°18'0 0.5
2017-Sep-11 20:59S 27°04' E 153°18'0 1.0
2017-Sep-11 20:30S 27°04' E 153°18'3 5.0
2017-Sep-11 19:49S 27°07' E 153°19'3 9.2
2017-Sep-11 19:30S 27°10' E 153°19'5 9.6
2017-Sep-11 19:00S 27°14' E 153°17'5 9.4
2017-Sep-11 18:30S 27°18' E 153°13'5 9.6
2017-Sep-11 17:59S 27°22' E 153°10'3 6.8
2017-Sep-11 17:30S 27°25' E 153°09'1 0.1
2017-Sep-11 01:18S 27°24' E 153°09'2 5.1
2017-Sep-11 00:59S 27°23' E 153°10'4 8.2
2017-Sep-11 00:30S 27°19' E 153°12'4 7.7
2017-Sep-11 00:00S 27°16' E 153°15'11 6.7
2017-Sep-10 22:23S 27°06' E 153°19'3 5.2
2017-Sep-10 21:47S 27°04' E 153°18'1 1.3
2017-Sep-10 21:23S 27°04' E 153°18'1 1.2
2017-Sep-10 20:58S 27°04' E 153°18'0 0.6
2017-Sep-10 20:30S 27°04' E 153°17'0 0.5
2017-Sep-10 20:00S 27°04' E 153°17'0 0.7
2017-Sep-10 19:31S 27°04' E 153°18'0 0.2
2017-Sep-10 19:00S 27°04' E 153°18'3 5.2
2017-Sep-10 18:30S 27°06' E 153°19'5 9.7
2017-Sep-10 18:00S 27°11' E 153°19'510.1
2017-Sep-10 17:30S 27°15' E 153°16'5 9.8
2017-Sep-10 17:00S 27°19' E 153°12'5 9.4
2017-Sep-10 16:30S 27°23' E 153°09'0 0.0
2017-Sep-10 00:24S 27°23' E 153°09'3 8.1
2017-Sep-09 23:59S 27°20' E 153°11'4 8.0
2017-Sep-09 23:29S 27°17' E 153°14'11 6.9
2017-Sep-09 21:54S 27°08' E 153°21'3 7.5
2017-Sep-09 21:27S 27°05' E 153°19'2 2.4
2017-Sep-09 20:49S 27°04' E 153°18'0 0.5
2017-Sep-09 20:29S 27°04' E 153°18'0 1.0
2017-Sep-09 20:01S 27°04' E 153°18'1 1.0
2017-Sep-09 19:31S 27°04' E 153°17'0 0.8
2017-Sep-09 19:00S 27°04' E 153°18'0 0.9
2017-Sep-09 18:30S 27°04' E 153°18'1 1.2
2017-Sep-09 18:00S 27°04' E 153°18'5 9.5
2017-Sep-09 17:30S 27°09' E 153°20'510.3
2017-Sep-09 16:59S 27°14' E 153°17'5 9.7
2017-Sep-09 16:30S 27°17' E 153°14'5 9.0
2017-Sep-09 16:00S 27°21' E 153°11'4 8.6
2017-Sep-09 15:31S 27°25' E 153°09'  

Dump ship's entire track history